sensor_id;sensor_type;location;lat;lon;timestamp;pressure;altitude;pressure_sealevel;temperature;humidity
80335;BME280;69653;52.674;13.574;2023-06-14T00:02:11;101000.22;;;12.73;67.88
80335;BME280;69653;52.674;13.574;2023-06-14T00:04:36;100992.91;;;12.68;68.12
80335;BME280;69653;52.674;13.574;2023-06-14T00:07:03;100998.06;;;12.70;68.20
80335;BME280;69653;52.674;13.574;2023-06-14T00:09:28;100995.13;;;12.66;68.16
80335;BME280;69653;52.674;13.574;2023-06-14T00:11:53;100999.00;;;12.65;68.37
80335;BME280;69653;52.674;13.574;2023-06-14T00:14:19;100992.16;;;12.62;68.69
80335;BME280;69653;52.674;13.574;2023-06-14T00:16:44;100995.53;;;12.59;68.77
80335;BME280;69653;52.674;13.574;2023-06-14T00:19:10;101001.63;;;12.56;68.98
80335;BME280;69653;52.674;13.574;2023-06-14T00:21:36;100998.69;;;12.53;69.08
80335;BME280;69653;52.674;13.574;2023-06-14T00:24:02;101010.16;;;12.55;69.39
80335;BME280;69653;52.674;13.574;2023-06-14T00:26:27;101005.47;;;12.55;69.43
80335;BME280;69653;52.674;13.574;2023-06-14T00:28:54;101011.06;;;12.50;69.80
80335;BME280;69653;52.674;13.574;2023-06-14T00:31:19;101013.81;;;12.50;69.58
80335;BME280;69653;52.674;13.574;2023-06-14T00:33:45;101000.47;;;12.44;69.90
80335;BME280;69653;52.674;13.574;2023-06-14T00:36:10;101004.34;;;12.43;69.63
80335;BME280;69653;52.674;13.574;2023-06-14T00:38:36;101010.63;;;12.43;70.21
80335;BME280;69653;52.674;13.574;2023-06-14T00:41:01;101014.59;;;12.37;70.36
80335;BME280;69653;52.674;13.574;2023-06-14T00:43:26;101007.59;;;12.31;70.70
80335;BME280;69653;52.674;13.574;2023-06-14T00:45:52;101008.19;;;12.28;70.76
80335;BME280;69653;52.674;13.574;2023-06-14T00:48:17;101010.13;;;12.28;71.29
80335;BME280;69653;52.674;13.574;2023-06-14T00:50:44;101007.66;;;12.26;71.24
80335;BME280;69653;52.674;13.574;2023-06-14T00:53:12;101008.75;;;12.25;71.41
80335;BME280;69653;52.674;13.574;2023-06-14T00:55:37;100999.50;;;12.21;71.45
80335;BME280;69653;52.674;13.574;2023-06-14T00:58:03;101008.25;;;12.23;71.72
80335;BME280;69653;52.674;13.574;2023-06-14T01:00:28;101008.88;;;12.20;71.50
80335;BME280;69653;52.674;13.574;2023-06-14T01:02:53;101012.94;;;12.23;71.73
80335;BME280;69653;52.674;13.574;2023-06-14T01:05:20;101013.53;;;12.20;72.10
80335;BME280;69653;52.674;13.574;2023-06-14T01:08:05;101011.69;;;12.15;72.52
80335;BME280;69653;52.674;13.574;2023-06-14T01:10:53;101008.72;;;12.11;71.82
80335;BME280;69653;52.674;13.574;2023-06-14T01:13:27;101003.13;;;12.03;72.42
80335;BME280;69653;52.674;13.574;2023-06-14T01:15:54;101019.34;;;11.99;72.60
80335;BME280;69653;52.674;13.574;2023-06-14T01:18:21;101013.38;;;11.97;72.87
80335;BME280;69653;52.674;13.574;2023-06-14T01:20:47;101020.56;;;11.93;72.81
80335;BME280;69653;52.674;13.574;2023-06-14T01:23:21;101016.56;;;11.86;73.30
80335;BME280;69653;52.674;13.574;2023-06-14T01:25:47;101010.94;;;11.77;73.81
80335;BME280;69653;52.674;13.574;2023-06-14T01:28:15;101021.06;;;11.77;73.91
80335;BME280;69653;52.674;13.574;2023-06-14T01:30:42;101021.59;;;11.79;73.75
80335;BME280;69653;52.674;13.574;2023-06-14T01:33:12;100995.44;;;11.67;73.57
80335;BME280;69653;52.674;13.574;2023-06-14T01:35:39;101023.31;;;11.75;74.04
80335;BME280;69653;52.674;13.574;2023-06-14T01:38:06;101017.28;;;11.73;74.43
80335;BME280;69653;52.674;13.574;2023-06-14T01:40:33;101006.41;;;11.67;74.35
80335;BME280;69653;52.674;13.574;2023-06-14T01:42:59;101014.03;;;11.71;74.39
80335;BME280;69653;52.674;13.574;2023-06-14T01:45:25;101015.50;;;11.63;74.53
80335;BME280;69653;52.674;13.574;2023-06-14T01:47:52;101009.22;;;11.62;74.77
80335;BME280;69653;52.674;13.574;2023-06-14T01:50:19;101014.41;;;11.64;74.63
80335;BME280;69653;52.674;13.574;2023-06-14T01:52:45;101007.66;;;11.56;74.89
80335;BME280;69653;52.674;13.574;2023-06-14T01:55:10;101015.06;;;11.56;75.20
80335;BME280;69653;52.674;13.574;2023-06-14T01:57:36;101010.41;;;11.56;74.85
80335;BME280;69653;52.674;13.574;2023-06-14T02:00:02;101018.91;;;11.55;75.25
80335;BME280;69653;52.674;13.574;2023-06-14T02:02:28;101003.66;;;11.49;75.46
80335;BME280;69653;52.674;13.574;2023-06-14T02:04:54;101004.81;;;11.43;75.58
80335;BME280;69653;52.674;13.574;2023-06-14T02:07:22;101015.78;;;11.43;75.91
80335;BME280;69653;52.674;13.574;2023-06-14T02:09:48;101008.97;;;11.40;75.91
80335;BME280;69653;52.674;13.574;2023-06-14T02:12:13;101007.06;;;11.41;76.08
80335;BME280;69653;52.674;13.574;2023-06-14T02:14:39;101007.88;;;11.41;76.34
80335;BME280;69653;52.674;13.574;2023-06-14T02:17:04;101014.47;;;11.40;76.22
80335;BME280;69653;52.674;13.574;2023-06-14T02:19:29;101005.78;;;11.33;76.54
80335;BME280;69653;52.674;13.574;2023-06-14T02:21:55;101012.47;;;11.27;76.55
80335;BME280;69653;52.674;13.574;2023-06-14T02:24:20;101015.09;;;11.32;76.43
80335;BME280;69653;52.674;13.574;2023-06-14T02:26:45;101020.06;;;11.30;76.56
80335;BME280;69653;52.674;13.574;2023-06-14T02:29:11;101021.19;;;11.29;76.76
80335;BME280;69653;52.674;13.574;2023-06-14T02:31:40;101012.47;;;11.27;77.06
80335;BME280;69653;52.674;13.574;2023-06-14T02:34:05;101009.50;;;11.24;77.09
80335;BME280;69653;52.674;13.574;2023-06-14T02:36:30;101019.63;;;11.23;77.29
80335;BME280;69653;52.674;13.574;2023-06-14T02:38:56;101010.38;;;11.19;77.25
80335;BME280;69653;52.674;13.574;2023-06-14T02:41:23;101009.03;;;11.16;77.21
80335;BME280;69653;52.674;13.574;2023-06-14T02:43:49;101011.78;;;11.16;77.43
80335;BME280;69653;52.674;13.574;2023-06-14T02:46:14;101013.75;;;11.11;77.51
80335;BME280;69653;52.674;13.574;2023-06-14T02:48:40;101005.81;;;11.09;77.93
80335;BME280;69653;52.674;13.574;2023-06-14T02:51:05;101001.75;;;11.07;77.82
80335;BME280;69653;52.674;13.574;2023-06-14T02:53:31;101013.75;;;11.11;77.92
80335;BME280;69653;52.674;13.574;2023-06-14T02:55:56;101002.34;;;11.04;77.87
80335;BME280;69653;52.674;13.574;2023-06-14T02:58:21;101015.97;;;11.09;77.95
80335;BME280;69653;52.674;13.574;2023-06-14T03:00:50;101004.56;;;11.02;78.15
80335;BME280;69653;52.674;13.574;2023-06-14T03:03:17;101004.78;;;11.05;78.00
80335;BME280;69653;52.674;13.574;2023-06-14T03:05:45;101013.25;;;11.09;78.07
80335;BME280;69653;52.674;13.574;2023-06-14T03:08:13;101002.84;;;11.06;77.88
80335;BME280;69653;52.674;13.574;2023-06-14T03:10:42;101010.19;;;11.10;77.94
80335;BME280;69653;52.674;13.574;2023-06-14T03:13:08;101004.44;;;11.12;77.76
80335;BME280;69653;52.674;13.574;2023-06-14T03:15:36;101007.19;;;11.12;77.91
80335;BME280;69653;52.674;13.574;2023-06-14T03:18:01;101012.34;;;11.13;78.21
80335;BME280;69653;52.674;13.574;2023-06-14T03:20:26;101014.78;;;11.15;77.96
80335;BME280;69653;52.674;13.574;2023-06-14T03:22:54;101011.78;;;11.16;77.73
80335;BME280;69653;52.674;13.574;2023-06-14T03:25:19;101016.44;;;11.16;77.81
80335;BME280;69653;52.674;13.574;2023-06-14T03:27:47;101015.31;;;11.17;77.84
80335;BME280;69653;52.674;13.574;2023-06-14T03:30:12;101018.28;;;11.20;77.77
80335;BME280;69653;52.674;13.574;2023-06-14T03:32:38;101015.53;;;11.20;78.01
80335;BME280;69653;52.674;13.574;2023-06-14T03:35:03;101020.66;;;11.27;77.72
80335;BME280;69653;52.674;13.574;2023-06-14T03:37:29;101019.47;;;11.33;78.17
80335;BME280;69653;52.674;13.574;2023-06-14T03:39:54;101016.38;;;11.40;77.40
80335;BME280;69653;52.674;13.574;2023-06-14T03:42:19;101030.72;;;11.50;77.26
80335;BME280;69653;52.674;13.574;2023-06-14T03:44:45;101023.56;;;11.54;77.31
80335;BME280;69653;52.674;13.574;2023-06-14T03:47:10;101030.53;;;11.65;77.18
80335;BME280;69653;52.674;13.574;2023-06-14T03:49:35;101022.31;;;11.65;76.74
80335;BME280;69653;52.674;13.574;2023-06-14T03:52:02;101032.63;;;11.74;76.70
80335;BME280;69653;52.674;13.574;2023-06-14T03:54:27;101038.66;;;11.76;76.66
80335;BME280;69653;52.674;13.574;2023-06-14T03:56:53;101046.16;;;11.84;76.57
80335;BME280;69653;52.674;13.574;2023-06-14T03:59:19;101046.69;;;11.86;76.42
80335;BME280;69653;52.674;13.574;2023-06-14T04:01:45;101036.78;;;11.90;76.28
80335;BME280;69653;52.674;13.574;2023-06-14T04:04:12;101046.25;;;11.97;76.10
80335;BME280;69653;52.674;13.574;2023-06-14T04:06:37;101045.03;;;12.03;75.78
80335;BME280;69653;52.674;13.574;2023-06-14T04:09:02;101044.75;;;12.05;75.52
80335;BME280;69653;52.674;13.574;2023-06-14T04:11:28;101053.09;;;12.13;75.39
80335;BME280;69653;52.674;13.574;2023-06-14T04:13:53;101052.41;;;12.22;75.19
80335;BME280;69653;52.674;13.574;2023-06-14T04:16:21;101055.72;;;12.37;74.54
80335;BME280;69653;52.674;13.574;2023-06-14T04:18:47;101065.63;;;12.65;73.46
80335;BME280;69653;52.674;13.574;2023-06-14T04:21:13;101054.72;;;12.93;72.41
80335;BME280;69653;52.674;13.574;2023-06-14T04:23:38;101048.25;;;13.16;71.30
80335;BME280;69653;52.674;13.574;2023-06-14T04:26:04;101048.41;;;13.47;70.05
80335;BME280;69653;52.674;13.574;2023-06-14T04:28:29;101060.78;;;13.72;69.07
80335;BME280;69653;52.674;13.574;2023-06-14T04:30:55;101063.94;;;14.01;68.62
80335;BME280;69653;52.674;13.574;2023-06-14T04:33:21;101058.13;;;14.25;67.70
80335;BME280;69653;52.674;13.574;2023-06-14T04:35:48;101063.78;;;14.42;66.59
80335;BME280;69653;52.674;13.574;2023-06-14T04:38:13;101063.47;;;14.43;66.20
80335;BME280;69653;52.674;13.574;2023-06-14T04:40:41;101054.84;;;14.36;66.31
80335;BME280;69653;52.674;13.574;2023-06-14T04:43:11;101060.75;;;14.52;66.38
80335;BME280;69653;52.674;13.574;2023-06-14T04:45:42;101062.22;;;14.80;65.04
80335;BME280;69653;52.674;13.574;2023-06-14T04:48:10;101062.25;;;14.89;64.82
80335;BME280;69653;52.674;13.574;2023-06-14T04:50:35;101072.06;;;15.12;64.22
80335;BME280;69653;52.674;13.574;2023-06-14T04:53:01;101066.47;;;15.34;63.21
80335;BME280;69653;52.674;13.574;2023-06-14T04:55:26;101064.69;;;15.38;62.99
80335;BME280;69653;52.674;13.574;2023-06-14T04:57:52;101058.06;;;15.39;63.05
80335;BME280;69653;52.674;13.574;2023-06-14T05:00:20;101067.69;;;15.50;63.17
80335;BME280;69653;52.674;13.574;2023-06-14T05:02:46;101056.94;;;15.40;63.07
80335;BME280;69653;52.674;13.574;2023-06-14T05:05:12;101067.41;;;15.30;63.15
80335;BME280;69653;52.674;13.574;2023-06-14T05:07:37;101064.31;;;15.14;63.82
80335;BME280;69653;52.674;13.574;2023-06-14T05:10:03;101060.06;;;15.08;64.40
80335;BME280;69653;52.674;13.574;2023-06-14T05:12:28;101067.34;;;15.04;64.62
80335;BME280;69653;52.674;13.574;2023-06-14T05:14:54;101065.09;;;15.06;64.54
80335;BME280;69653;52.674;13.574;2023-06-14T05:17:19;101070.56;;;14.97;64.88
80335;BME280;69653;52.674;13.574;2023-06-14T05:19:45;101065.69;;;14.94;65.03
80335;BME280;69653;52.674;13.574;2023-06-14T05:22:11;101070.50;;;14.89;65.17
80335;BME280;69653;52.674;13.574;2023-06-14T05:24:36;101082.84;;;14.91;65.28
80335;BME280;69653;52.674;13.574;2023-06-14T05:27:02;101074.25;;;14.93;65.41
80335;BME280;69653;52.674;13.574;2023-06-14T05:29:28;101080.75;;;14.97;65.36
80335;BME280;69653;52.674;13.574;2023-06-14T05:31:53;101079.16;;;14.96;65.32
80335;BME280;69653;52.674;13.574;2023-06-14T05:34:18;101082.88;;;15.00;65.50
80335;BME280;69653;52.674;13.574;2023-06-14T05:36:44;101084.38;;;15.06;65.52
80335;BME280;69653;52.674;13.574;2023-06-14T05:39:10;101094.28;;;15.16;65.11
80335;BME280;69653;52.674;13.574;2023-06-14T05:41:35;101091.03;;;15.14;65.03
80335;BME280;69653;52.674;13.574;2023-06-14T05:44:01;101089.59;;;15.16;64.76
80335;BME280;69653;52.674;13.574;2023-06-14T05:46:26;101082.19;;;15.25;64.73
80335;BME280;69653;52.674;13.574;2023-06-14T05:48:52;101083.78;;;15.26;64.63
80335;BME280;69653;52.674;13.574;2023-06-14T05:51:18;101087.38;;;15.35;64.71
80335;BME280;69653;52.674;13.574;2023-06-14T05:53:45;101096.94;;;15.38;64.31
80335;BME280;69653;52.674;13.574;2023-06-14T05:56:11;101088.53;;;15.43;64.35
80335;BME280;69653;52.674;13.574;2023-06-14T05:58:36;101089.34;;;15.43;64.20
80335;BME280;69653;52.674;13.574;2023-06-14T06:01:02;101100.56;;;15.47;64.14
80335;BME280;69653;52.674;13.574;2023-06-14T06:03:27;101094.88;;;15.43;64.18
80335;BME280;69653;52.674;13.574;2023-06-14T06:05:54;101101.03;;;15.40;64.31
80335;BME280;69653;52.674;13.574;2023-06-14T06:08:20;101098.75;;;15.42;64.58
80335;BME280;69653;52.674;13.574;2023-06-14T06:10:46;101097.63;;;15.43;64.50
80335;BME280;69653;52.674;13.574;2023-06-14T06:13:11;101104.63;;;15.49;64.45
80335;BME280;69653;52.674;13.574;2023-06-14T06:15:36;101108.72;;;15.52;64.10
80335;BME280;69653;52.674;13.574;2023-06-14T06:18:02;101107.25;;;15.55;63.95
80335;BME280;69653;52.674;13.574;2023-06-14T06:20:27;101101.88;;;15.49;64.00
80335;BME280;69653;52.674;13.574;2023-06-14T06:22:54;101104.16;;;15.56;63.82
80335;BME280;69653;52.674;13.574;2023-06-14T06:25:19;101099.47;;;15.57;63.91
80335;BME280;69653;52.674;13.574;2023-06-14T06:27:45;101105.31;;;15.64;64.01
80335;BME280;69653;52.674;13.574;2023-06-14T06:30:11;101091.88;;;15.62;63.75
80335;BME280;69653;52.674;13.574;2023-06-14T06:32:36;101099.00;;;15.72;63.84
80335;BME280;69653;52.674;13.574;2023-06-14T06:35:01;101099.50;;;15.74;63.82
80335;BME280;69653;52.674;13.574;2023-06-14T06:37:27;101095.16;;;15.81;63.80
80335;BME280;69653;52.674;13.574;2023-06-14T06:39:52;101094.03;;;15.99;63.26
80335;BME280;69653;52.674;13.574;2023-06-14T06:42:18;101094.97;;;16.12;62.80
80335;BME280;69653;52.674;13.574;2023-06-14T06:44:43;101092.69;;;16.23;62.45
80335;BME280;69653;52.674;13.574;2023-06-14T06:47:08;101100.47;;;16.38;62.04
80335;BME280;69653;52.674;13.574;2023-06-14T06:49:36;101099.66;;;16.46;61.92
80335;BME280;69653;52.674;13.574;2023-06-14T06:52:06;101098.06;;;16.45;61.45
80335;BME280;69653;52.674;13.574;2023-06-14T06:54:32;101109.59;;;16.47;61.45
80335;BME280;69653;52.674;13.574;2023-06-14T06:56:58;101108.75;;;16.55;61.08
80335;BME280;69653;52.674;13.574;2023-06-14T06:59:23;101109.41;;;16.61;61.00
80335;BME280;69653;52.674;13.574;2023-06-14T07:01:49;101113.00;;;16.70;60.70
80335;BME280;69653;52.674;13.574;2023-06-14T07:04:14;101101.94;;;16.70;60.72
80335;BME280;69653;52.674;13.574;2023-06-14T07:06:41;101108.88;;;16.84;60.26
80335;BME280;69653;52.674;13.574;2023-06-14T07:09:07;101111.13;;;16.91;59.70
80335;BME280;69653;52.674;13.574;2023-06-14T07:11:37;101121.34;;;16.99;59.76
80335;BME280;69653;52.674;13.574;2023-06-14T07:14:02;101103.16;;;16.98;59.51
80335;BME280;69653;52.674;13.574;2023-06-14T07:16:27;101114.50;;;17.05;59.18
80335;BME280;69653;52.674;13.574;2023-06-14T07:18:53;101122.91;;;17.17;58.84
80335;BME280;69653;52.674;13.574;2023-06-14T07:21:18;101136.59;;;17.14;58.45
80335;BME280;69653;52.674;13.574;2023-06-14T07:23:43;101135.31;;;17.11;58.39
80335;BME280;69653;52.674;13.574;2023-06-14T07:26:09;101119.72;;;17.07;58.24
80335;BME280;69653;52.674;13.574;2023-06-14T07:28:34;101134.56;;;17.31;58.21
80335;BME280;69653;52.674;13.574;2023-06-14T07:31:00;101134.75;;;17.64;57.93
80335;BME280;69653;52.674;13.574;2023-06-14T07:33:26;101125.63;;;17.93;56.43
80335;BME280;69653;52.674;13.574;2023-06-14T07:35:51;101126.03;;;18.24;55.43
80335;BME280;69653;52.674;13.574;2023-06-14T07:38:18;101130.72;;;18.53;54.21
80335;BME280;69653;52.674;13.574;2023-06-14T07:40:43;101129.88;;;18.85;53.73
80335;BME280;69653;52.674;13.574;2023-06-14T07:43:08;101131.19;;;19.00;53.10
80335;BME280;69653;52.674;13.574;2023-06-14T07:45:34;101130.31;;;19.20;52.45
80335;BME280;69653;52.674;13.574;2023-06-14T07:47:59;101138.06;;;19.39;51.68
80335;BME280;69653;52.674;13.574;2023-06-14T07:50:25;101136.72;;;19.57;50.57
80335;BME280;69653;52.674;13.574;2023-06-14T07:52:50;101143.28;;;19.77;50.62
80335;BME280;69653;52.674;13.574;2023-06-14T07:55:16;101139.09;;;19.95;50.10
80335;BME280;69653;52.674;13.574;2023-06-14T07:57:42;101136.75;;;20.09;49.31
80335;BME280;69653;52.674;13.574;2023-06-14T08:00:09;101142.25;;;20.33;48.96
80335;BME280;69653;52.674;13.574;2023-06-14T08:02:40;101127.88;;;20.44;48.41
80335;BME280;69653;52.674;13.574;2023-06-14T08:05:06;101139.41;;;20.58;48.15
80335;BME280;69653;52.674;13.574;2023-06-14T08:07:31;101122.38;;;20.59;47.89
80335;BME280;69653;52.674;13.574;2023-06-14T08:09:56;101127.44;;;20.69;47.76
80335;BME280;69653;52.674;13.574;2023-06-14T08:12:22;101134.78;;;20.77;47.40
80335;BME280;69653;52.674;13.574;2023-06-14T08:14:47;101136.78;;;20.49;47.05
80335;BME280;69653;52.674;13.574;2023-06-14T08:17:13;101127.50;;;20.57;47.18
80335;BME280;69653;52.674;13.574;2023-06-14T08:19:38;101133.13;;;20.61;47.21
80335;BME280;69653;52.674;13.574;2023-06-14T08:22:03;101122.03;;;20.61;47.42
80335;BME280;69653;52.674;13.574;2023-06-14T08:24:29;101120.44;;;20.75;46.85
80335;BME280;69653;52.674;13.574;2023-06-14T08:26:54;101124.94;;;20.80;47.06
80335;BME280;69653;52.674;13.574;2023-06-14T08:29:21;101120.53;;;20.79;45.99
80335;BME280;69653;52.674;13.574;2023-06-14T08:31:47;101129.88;;;20.87;45.90
80335;BME280;69653;52.674;13.574;2023-06-14T08:34:12;101112.63;;;20.65;45.71
80335;BME280;69653;52.674;13.574;2023-06-14T08:36:37;101126.34;;;20.74;45.83
80335;BME280;69653;52.674;13.574;2023-06-14T08:39:03;101114.69;;;20.68;45.59
80335;BME280;69653;52.674;13.574;2023-06-14T08:41:28;101117.47;;;20.68;45.93
80335;BME280;69653;52.674;13.574;2023-06-14T08:43:55;101116.66;;;20.68;45.56
80335;BME280;69653;52.674;13.574;2023-06-14T08:46:21;101113.06;;;20.67;45.49
80335;BME280;69653;52.674;13.574;2023-06-14T08:48:51;101114.41;;;20.58;45.66
80335;BME280;69653;52.674;13.574;2023-06-14T08:51:20;101102.22;;;20.35;45.54
80335;BME280;69653;52.674;13.574;2023-06-14T08:53:54;101110.09;;;20.32;45.86
80335;BME280;69653;52.674;13.574;2023-06-14T08:56:26;101107.97;;;20.42;46.46
80335;BME280;69653;52.674;13.574;2023-06-14T08:58:53;101113.94;;;20.56;45.74
80335;BME280;69653;52.674;13.574;2023-06-14T09:01:18;101120.41;;;20.60;45.98
80335;BME280;69653;52.674;13.574;2023-06-14T09:03:44;101111.44;;;20.51;45.92
80335;BME280;69653;52.674;13.574;2023-06-14T09:06:11;101117.00;;;20.51;45.82
80335;BME280;69653;52.674;13.574;2023-06-14T09:08:43;101121.22;;;20.60;45.92
80335;BME280;69653;52.674;13.574;2023-06-14T09:11:11;101126.91;;;20.79;45.46
80335;BME280;69653;52.674;13.574;2023-06-14T09:13:38;101130.88;;;20.94;44.92
80335;BME280;69653;52.674;13.574;2023-06-14T09:16:03;101125.69;;;21.08;44.44
80335;BME280;69653;52.674;13.574;2023-06-14T09:18:41;101133.00;;;21.28;44.35
80335;BME280;69653;52.674;13.574;2023-06-14T09:21:07;101129.41;;;21.28;44.42
80335;BME280;69653;52.674;13.574;2023-06-14T09:23:39;101129.25;;;21.21;44.46
80335;BME280;69653;52.674;13.574;2023-06-14T09:26:13;101127.88;;;21.31;44.39
80335;BME280;69653;52.674;13.574;2023-06-14T09:28:45;101130.91;;;21.25;44.17
80335;BME280;69653;52.674;13.574;2023-06-14T09:31:12;101130.91;;;21.25;43.53
80335;BME280;69653;52.674;13.574;2023-06-14T09:33:38;101132.53;;;21.26;43.20
80335;BME280;69653;52.674;13.574;2023-06-14T09:36:04;101116.91;;;21.06;43.07
80335;BME280;69653;52.674;13.574;2023-06-14T09:38:34;101127.81;;;20.99;44.00
80335;BME280;69653;52.674;13.574;2023-06-14T09:41:03;101137.63;;;21.09;44.12
80335;BME280;69653;52.674;13.574;2023-06-14T09:43:28;101121.88;;;20.85;43.67
80335;BME280;69653;52.674;13.574;2023-06-14T09:45:54;101131.00;;;20.70;44.35
80335;BME280;69653;52.674;13.574;2023-06-14T09:48:20;101135.88;;;20.73;44.94
80335;BME280;69653;52.674;13.574;2023-06-14T09:50:46;101134.16;;;20.68;44.96
80335;BME280;69653;52.674;13.574;2023-06-14T09:53:15;101136.25;;;20.59;44.54
80335;BME280;69653;52.674;13.574;2023-06-14T09:55:41;101130.16;;;20.54;44.10
80335;BME280;69653;52.674;13.574;2023-06-14T09:58:09;101127.28;;;20.50;44.43
80335;BME280;69653;52.674;13.574;2023-06-14T10:00:35;101132.31;;;20.60;44.38
80335;BME280;69653;52.674;13.574;2023-06-14T10:03:13;101131.81;;;20.70;44.26
80335;BME280;69653;52.674;13.574;2023-06-14T10:05:42;101125.66;;;20.93;43.99
80335;BME280;69653;52.674;13.574;2023-06-14T10:08:09;101127.25;;;21.21;42.68
80335;BME280;69653;52.674;13.574;2023-06-14T10:10:35;101118.09;;;21.37;41.72
80335;BME280;69653;52.674;13.574;2023-06-14T10:13:03;101127.16;;;21.34;42.32
80335;BME280;69653;52.674;13.574;2023-06-14T10:15:38;101132.97;;;21.44;41.99
80335;BME280;69653;52.674;13.574;2023-06-14T10:18:33;101128.69;;;21.47;42.13
80335;BME280;69653;52.674;13.574;2023-06-14T10:24:16;101128.34;;;21.83;40.46
80335;BME280;69653;52.674;13.574;2023-06-14T10:26:54;101112.75;;;22.13;40.25
80335;BME280;69653;52.674;13.574;2023-06-14T10:29:19;101106.06;;;22.37;39.01
80335;BME280;69653;52.674;13.574;2023-06-14T10:31:46;101112.91;;;22.40;38.09
80335;BME280;69653;52.674;13.574;2023-06-14T10:34:21;101106.00;;;22.72;37.87
80335;BME280;69653;52.674;13.574;2023-06-14T10:37:00;101103.81;;;22.62;36.58
80335;BME280;69653;52.674;13.574;2023-06-14T10:39:28;101107.84;;;22.45;37.09
80335;BME280;69653;52.674;13.574;2023-06-14T10:41:56;101102.03;;;22.54;37.17
80335;BME280;69653;52.674;13.574;2023-06-14T10:46:48;101099.56;;;22.68;37.02
80335;BME280;69653;52.674;13.574;2023-06-14T10:49:37;101101.97;;;22.89;36.96
80335;BME280;69653;52.674;13.574;2023-06-14T10:52:11;101083.97;;;23.09;36.67
80335;BME280;69653;52.674;13.574;2023-06-14T10:55:01;101094.19;;;23.47;35.84
80335;BME280;69653;52.674;13.574;2023-06-14T10:57:27;101094.84;;;23.63;34.87
80335;BME280;69653;52.674;13.574;2023-06-14T10:59:53;101092.56;;;23.72;34.42
80335;BME280;69653;52.674;13.574;2023-06-14T11:04:51;101085.88;;;24.06;33.98
80335;BME280;69653;52.674;13.574;2023-06-14T11:10:40;101080.28;;;23.77;33.98
80335;BME280;69653;52.674;13.574;2023-06-14T11:13:09;101076.81;;;23.87;33.90
80335;BME280;69653;52.674;13.574;2023-06-14T11:15:36;101077.72;;;23.94;33.08
80335;BME280;69653;52.674;13.574;2023-06-14T11:18:04;101069.44;;;24.01;33.13
80335;BME280;69653;52.674;13.574;2023-06-14T11:20:31;101066.28;;;24.03;33.06
80335;BME280;69653;52.674;13.574;2023-06-14T11:22:56;101063.38;;;24.22;32.44
80335;BME280;69653;52.674;13.574;2023-06-14T11:25:22;101056.97;;;24.22;32.56
80335;BME280;69653;52.674;13.574;2023-06-14T11:27:49;101059.00;;;23.95;32.57
80335;BME280;69653;52.674;13.574;2023-06-14T11:30:15;101060.78;;;24.10;32.57
80335;BME280;69653;52.674;13.574;2023-06-14T11:32:41;101036.63;;;23.95;32.64
80335;BME280;69653;52.674;13.574;2023-06-14T11:35:07;101055.06;;;23.99;32.24
80335;BME280;69653;52.674;13.574;2023-06-14T11:37:34;101047.19;;;24.08;32.08
80335;BME280;69653;52.674;13.574;2023-06-14T11:40:03;101042.06;;;24.44;31.95
80335;BME280;69653;52.674;13.574;2023-06-14T11:42:33;101042.41;;;24.79;31.33
80335;BME280;69653;52.674;13.574;2023-06-14T11:44:59;101041.69;;;25.33;30.64
80335;BME280;69653;52.674;13.574;2023-06-14T11:47:24;101035.22;;;25.87;29.84
80335;BME280;69653;52.674;13.574;2023-06-14T11:49:58;101017.81;;;26.26;29.05
80335;BME280;69653;52.674;13.574;2023-06-14T11:52:23;101033.97;;;26.85;27.70
80335;BME280;69653;52.674;13.574;2023-06-14T11:54:49;101021.91;;;27.45;27.10
80335;BME280;69653;52.674;13.574;2023-06-14T11:57:14;101023.44;;;27.81;27.36
80335;BME280;69653;52.674;13.574;2023-06-14T11:59:40;101010.22;;;27.71;26.43
80335;BME280;69653;52.674;13.574;2023-06-14T12:02:06;101011.31;;;28.02;25.93
80335;BME280;69653;52.674;13.574;2023-06-14T12:04:32;101003.59;;;28.27;25.32
80335;BME280;69653;52.674;13.574;2023-06-14T12:07:11;101009.50;;;28.47;24.95
80335;BME280;69653;52.674;13.574;2023-06-14T12:12:26;100998.44;;;28.05;24.07
80335;BME280;69653;52.674;13.574;2023-06-14T12:14:53;100982.78;;;28.11;24.45
80335;BME280;69653;52.674;13.574;2023-06-14T12:17:19;100997.91;;;28.38;24.39
80335;BME280;69653;52.674;13.574;2023-06-14T12:19:45;101000.34;;;28.36;24.29
80335;BME280;69653;52.674;13.574;2023-06-14T12:22:14;100987.81;;;28.40;24.22
80335;BME280;69653;52.674;13.574;2023-06-14T12:24:43;100978.81;;;28.70;23.85
80335;BME280;69653;52.674;13.574;2023-06-14T12:27:09;100984.19;;;29.02;23.68
80335;BME280;69653;52.674;13.574;2023-06-14T12:29:37;100981.56;;;28.77;24.18
80335;BME280;69653;52.674;13.574;2023-06-14T12:32:02;100973.50;;;28.21;24.24
80335;BME280;69653;52.674;13.574;2023-06-14T12:34:27;100959.56;;;27.92;24.83
80335;BME280;69653;52.674;13.574;2023-06-14T12:36:53;100973.00;;;27.39;24.87
80335;BME280;69653;52.674;13.574;2023-06-14T12:39:19;100967.78;;;27.23;25.75
80335;BME280;69653;52.674;13.574;2023-06-14T12:41:46;100969.00;;;27.12;24.50
80335;BME280;69653;52.674;13.574;2023-06-14T12:44:12;100969.75;;;27.44;24.21
80335;BME280;69653;52.674;13.574;2023-06-14T12:46:37;100969.31;;;27.63;23.57
80335;BME280;69653;52.674;13.574;2023-06-14T12:49:05;100971.69;;;27.75;23.36
80335;BME280;69653;52.674;13.574;2023-06-14T12:51:30;100967.66;;;27.80;23.21
80335;BME280;69653;52.674;13.574;2023-06-14T12:53:56;100972.50;;;27.76;23.83